Time;durP1;ratioP1;P1;durP2;ratioP2;P2;SDS_P1;SDS_P2;PMS_P1;PMS_P2;Temp;Humidity;BMP_temperature;BMP_pressure;BME280_temperature;BME280_humidity;BME280_pressure;Samples;Min_cycle;Max_cycle;Signal;HPM_P1;HPM_P2
2021/06/12 00:00:54;;;;;;;10.48;6.28;;;;;;;27.33;43.49;101650.50;5057049;28;20043;-60
2021/06/12 00:03:20;;;;;;;13.13;6.20;;;;;;;27.27;43.12;101648.66;5075124;28;20021;-59
2021/06/12 00:05:45;;;;;;;14.05;6.97;;;;;;;27.24;43.66;101642.75;5074782;28;20039;-60
2021/06/12 00:08:11;;;;;;;11.07;6.93;;;;;;;27.21;43.16;101643.16;5074991;28;20055;-59
2021/06/12 00:10:38;;;;;;;16.67;6.80;;;;;;;27.15;43.75;101637.47;5073440;28;20035;-59
2021/06/12 00:13:05;;;;;;;12.30;5.90;;;;;;;27.16;44.00;101633.66;5073378;28;20104;-59
2021/06/12 00:15:31;;;;;;;13.52;7.35;;;;;;;27.16;43.48;101635.59;5056650;28;20036;-59
2021/06/12 00:17:57;;;;;;;10.00;6.60;;;;;;;27.17;44.25;101637.25;5074810;28;20107;-59
2021/06/12 00:20:25;;;;;;;15.82;7.00;;;;;;;27.16;43.89;101630.91;5074522;28;20111;-60
2021/06/12 00:22:51;;;;;;;14.00;6.82;;;;;;;27.13;44.50;101612.09;5074432;28;20457;-60
2021/06/12 00:25:21;;;;;;;16.52;7.70;;;;;;;27.17;44.21;101624.34;5056173;28;20024;-60
2021/06/12 00:27:47;;;;;;;10.82;6.57;;;;;;;27.18;43.78;101628.78;5074350;28;20020;-60
2021/06/12 00:30:13;;;;;;;12.57;7.07;;;;;;;27.19;44.22;101627.72;5074348;28;20033;-60
2021/06/12 00:32:38;;;;;;;12.98;6.88;;;;;;;27.22;44.38;101622.84;5074469;28;20028;-59
2021/06/12 00:35:09;;;;;;;10.63;6.32;;;;;;;27.21;44.26;101618.41;5056145;28;20036;-60
2021/06/12 00:37:34;;;;;;;14.77;6.55;;;;;;;27.21;44.57;101626.66;5073813;28;20024;-61
2021/06/12 00:40:00;;;;;;;13.05;7.07;;;;;;;27.19;44.64;101613.94;5056728;28;20027;-60
2021/06/12 00:42:26;;;;;;;12.30;7.15;;;;;;;27.17;44.28;101613.34;5074099;28;20469;-59
2021/06/12 00:44:51;;;;;;;11.90;6.82;;;;;;;27.17;44.21;101613.34;5056036;28;20074;-60
2021/06/12 00:47:16;;;;;;;15.23;7.30;;;;;;;27.16;44.96;101619.88;5073927;28;20021;-60
2021/06/12 00:49:42;;;;;;;10.50;6.43;;;;;;;27.14;45.04;101622.03;5073599;28;20115;-59
2021/06/12 00:52:07;;;;;;;13.23;7.35;;;;;;;27.14;44.98;101621.19;5073380;28;20401;-59
2021/06/12 00:54:33;;;;;;;11.52;7.03;;;;;;;27.11;44.57;101611.47;5074436;28;20025;-60
2021/06/12 00:56:58;;;;;;;15.70;6.97;;;;;;;27.13;44.76;101606.59;5073850;28;20028;-60
2021/06/12 00:59:24;;;;;;;15.38;7.28;;;;;;;27.14;44.72;101610.16;5074078;28;20469;-60
2021/06/12 01:01:50;;;;;;;12.15;7.43;;;;;;;27.15;44.82;101607.22;5073571;28;20112;-60
2021/06/12 01:04:15;;;;;;;10.65;7.72;;;;;;;27.18;45.27;101606.78;5073513;28;20024;-60
2021/06/12 01:06:41;;;;;;;12.40;7.65;;;;;;;27.18;45.50;101604.03;5073771;28;20031;-60
2021/06/12 01:09:07;;;;;;;11.88;7.53;;;;;;;27.22;45.25;101604.41;5056227;28;20046;-59
2021/06/12 01:11:40;;;;;;;14.02;7.30;;;;;;;27.25;45.26;101608.66;5055893;28;20090;-59
2021/06/12 01:14:12;;;;;;;14.68;7.80;;;;;;;27.27;45.49;101615.63;5073587;28;20016;-60
2021/06/12 01:16:43;;;;;;;9.97;6.53;;;;;;;27.31;45.13;101610.50;5072733;28;20522;-59
2021/06/12 01:19:24;;;;;;;10.88;6.78;;;;;;;27.35;45.36;101606.28;5073700;28;20028;-60
2021/06/12 01:21:51;;;;;;;13.27;6.82;;;;;;;27.38;45.01;101595.66;5055636;28;20024;-59
2021/06/12 01:24:44;;;;;;;9.85;7.32;;;;;;;27.42;44.97;101598.84;5072110;28;20090;-60
2021/06/12 01:27:28;;;;;;;;;;;;;;;27.47;45.15;101604.53;5073991;28;20032;-60
2021/06/12 01:30:16;;;;;;;10.38;6.10;;;;;;;27.48;45.23;101600.72;5073291;28;19919;-60
2021/06/12 01:32:59;;;;;;;14.48;6.70;;;;;;;27.51;45.29;101611.28;5073190;28;20420;-60
2021/06/12 01:35:34;;;;;;;9.55;6.05;;;;;;;27.53;44.98;101604.47;5055527;28;20039;-59
2021/06/12 01:38:01;;;;;;;8.02;5.82;;;;;;;27.55;45.16;101596.88;5072004;28;20024;-60
2021/06/12 01:40:30;;;;;;;10.38;6.28;;;;;;;27.57;45.17;101593.88;5072555;28;20024;-59
2021/06/12 01:42:56;;;;;;;13.43;6.97;;;;;;;27.62;45.29;101603.16;5071908;28;20047;-60
2021/06/12 01:45:22;;;;;;;10.95;5.80;;;;;;;27.64;45.32;101616.69;5072299;28;20071;-60
2021/06/12 01:47:48;;;;;;;8.25;4.95;;;;;;;27.64;44.77;101616.69;5072057;28;20040;-60
2021/06/12 01:50:15;;;;;;;8.57;4.35;;;;;;;27.62;45.08;101616.06;5072163;28;20477;-61
2021/06/12 01:52:42;;;;;;;6.63;4.40;;;;;;;27.66;45.51;101620.94;5051429;28;20059;-59
2021/06/12 01:55:08;;;;;;;8.13;4.38;;;;;;;27.67;45.15;101613.50;5053553;28;20036;-59
2021/06/12 01:57:34;;;;;;;8.50;4.95;;;;;;;27.68;45.66;101612.44;5051717;28;20428;-60
2021/06/12 02:00:00;;;;;;;6.88;4.32;;;;;;;27.69;45.25;101614.13;5053288;28;20087;-60
2021/06/12 02:02:25;;;;;;;6.18;4.18;;;;;;;27.69;45.44;101619.66;5035079;28;20025;-60
2021/06/12 02:04:51;;;;;;;6.97;4.30;;;;;;;27.68;45.28;101624.31;5053199;28;20496;-60
2021/06/12 02:07:17;;;;;;;7.75;5.60;;;;;;;27.71;45.35;101628.53;5052504;28;20091;-59
2021/06/12 02:09:45;;;;;;;4.70;3.55;;;;;;;27.69;45.37;101637.00;5051995;28;20029;-60
2021/06/12 02:12:11;;;;;;;8.63;4.28;;;;;;;27.70;45.42;101637.84;5068069;28;20068;-59
2021/06/12 02:14:39;;;;;;;5.45;3.55;;;;;;;27.68;45.69;101639.97;5051830;28;20048;-59
2021/06/12 02:17:04;;;;;;;8.55;3.05;;;;;;;27.64;44.70;101635.97;5068533;28;20108;-60
2021/06/12 02:19:30;;;;;;;4.22;3.42;;;;;;;27.58;44.86;101634.94;5068855;28;20075;-60
2021/06/12 02:21:55;;;;;;;4.32;2.83;;;;;;;27.53;44.72;101639.44;5051818;28;20068;-59
2021/06/12 02:24:21;;;;;;;6.60;3.63;;;;;;;27.49;44.65;101647.31;5051885;28;20434;-60
2021/06/12 02:26:48;;;;;;;5.18;2.70;;;;;;;27.46;45.13;101635.88;5068640;28;20571;-60
2021/06/12 02:29:15;;;;;;;6.07;2.83;;;;;;;27.42;44.92;101640.13;5051785;28;20027;-61
2021/06/12 02:31:44;;;;;;;3.67;2.20;;;;;;;27.37;45.08;101631.66;5051403;28;20477;-60
2021/06/12 02:34:10;;;;;;;6.07;2.45;;;;;;;27.35;44.86;101650.31;5054728;28;20052;-60
2021/06/12 02:36:36;;;;;;;4.18;2.35;;;;;;;27.29;44.86;101645.66;5056544;28;20048;-60
2021/06/12 02:39:04;;;;;;;3.40;1.98;;;;;;;27.26;44.75;101637.84;5056501;28;20032;-61
2021/06/12 02:41:30;;;;;;;4.68;1.77;;;;;;;27.22;44.73;101639.38;5056410;28;20481;-59
2021/06/12 02:43:55;;;;;;;2.38;1.95;;;;;;;27.22;45.07;101650.38;5056803;28;20025;-60
2021/06/12 02:46:26;;;;;;;2.33;2.10;;;;;;;27.18;44.68;101648.06;5054842;28;20438;-60
2021/06/12 02:48:58;;;;;;;3.30;1.88;;;;;;;27.08;44.51;101642.16;5054970;28;20040;-60
2021/06/12 02:51:23;;;;;;;;;;;;;;;27.12;44.90;101659.94;5072746;28;20025;-59
2021/06/12 02:53:51;;;;;;;2.53;1.67;;;;;;;27.08;44.54;101655.91;5073099;28;19965;-60
2021/06/12 02:56:18;;;;;;;2.78;1.38;;;;;;;27.03;45.09;101661.22;5074678;28;20557;-59
2021/06/12 02:58:45;;;;;;;2.72;1.17;;;;;;;26.98;44.77;101651.94;5074930;28;20044;-61
2021/06/12 03:01:10;;;;;;;2.13;1.58;;;;;;;26.91;44.77;101653.88;5074927;28;20400;-60
2021/06/12 03:03:35;;;;;;;3.28;1.13;;;;;;;26.93;44.28;101671.84;5076286;28;20042;-59
2021/06/12 03:06:02;;;;;;;3.70;1.55;;;;;;;26.90;44.51;101663.16;5058099;28;20035;-59
2021/06/12 03:08:35;;;;;;;3.65;1.48;;;;;;;26.86;44.46;101662.75;5057899;28;20016;-60
2021/06/12 03:11:03;;;;;;;2.75;1.27;;;;;;;26.82;44.60;101658.75;5075878;28;20146;-59
2021/06/12 03:13:28;;;;;;;1.48;1.35;;;;;;;26.80;44.50;101660.84;5057996;28;20463;-60
2021/06/12 03:15:56;;;;;;;2.55;1.45;;;;;;;26.79;44.73;101669.34;5075470;28;20108;-60
2021/06/12 03:18:23;;;;;;;1.88;1.42;;;;;;;26.75;45.07;101671.63;5057980;28;20457;-60
2021/06/12 03:20:49;;;;;;;1.20;1.10;;;;;;;26.73;44.85;101673.75;5074398;28;20025;-60
2021/06/12 03:23:16;;;;;;;4.00;1.58;;;;;;;26.73;45.12;101673.75;5074166;28;20020;-60
2021/06/12 03:25:42;;;;;;;5.25;2.13;;;;;;;26.70;45.00;101668.69;5057653;28;20034;-60
2021/06/12 03:28:07;;;;;;;2.10;1.60;;;;;;;26.69;44.85;101671.66;5076011;28;20033;-60
2021/06/12 03:30:33;;;;;;;4.25;2.00;;;;;;;26.66;44.78;101661.09;5075379;28;20031;-59
2021/06/12 03:33:04;;;;;;;4.78;3.13;;;;;;;26.61;45.18;101653.47;5074168;28;20024;-60
2021/06/12 03:35:30;;;;;;;5.13;3.63;;;;;;;26.53;44.93;101648.19;5058088;28;20483;-59
2021/06/12 03:37:56;;;;;;;3.45;3.10;;;;;;;26.51;45.34;101661.31;5074173;28;20024;-60
2021/06/12 03:40:22;;;;;;;5.82;3.08;;;;;;;26.46;45.31;101659.22;5057578;28;20035;-61
2021/06/12 03:42:47;;;;;;;4.85;2.72;;;;;;;26.45;45.52;101670.41;5074095;28;20089;-60
2021/06/12 03:45:14;;;;;;;4.20;2.90;;;;;;;26.40;45.24;101668.31;5074210;28;20054;-59
2021/06/12 03:47:40;;;;;;;6.65;2.90;;;;;;;26.41;45.26;101674.66;5057258;28;20024;-60
2021/06/12 03:50:09;;;;;;;5.60;3.28;;;;;;;26.39;45.34;101677.59;5074928;28;20112;-60
2021/06/12 03:52:35;;;;;;;4.28;2.42;;;;;;;26.38;45.62;101672.34;5074861;28;20515;-59
2021/06/12 03:55:03;;;;;;;3.63;2.03;;;;;;;26.37;45.44;101656.88;5075005;28;20362;-60
2021/06/12 03:57:28;;;;;;;3.45;2.08;;;;;;;26.35;45.67;101667.25;5074965;28;20484;-60
2021/06/12 03:59:54;;;;;;;4.20;2.47;;;;;;;26.34;45.71;101673.78;5074938;28;20033;-60
2021/06/12 04:02:19;;;;;;;1.80;1.67;;;;;;;26.32;45.26;101675.91;5074879;28;20090;-60
2021/06/12 04:04:47;;;;;;;2.78;1.92;;;;;;;26.32;45.46;101675.91;5057030;28;20047;-59
2021/06/12 04:07:13;;;;;;;2.67;1.80;;;;;;;26.30;45.60;101669.81;5074812;28;20020;-60
2021/06/12 04:09:38;;;;;;;2.38;1.55;;;;;;;26.27;45.70;101671.03;5056931;28;20048;-59
2021/06/12 04:12:05;;;;;;;5.80;1.50;;;;;;;26.27;45.50;101662.78;5074724;28;20392;-60
2021/06/12 04:14:30;;;;;;;4.25;1.88;;;;;;;26.25;45.63;101659.44;5057155;28;20354;-60
2021/06/12 04:16:56;;;;;;;2.25;1.95;;;;;;;26.25;45.34;101648.44;5074517;28;20029;-60
2021/06/12 04:19:21;;;;;;;9.10;2.35;;;;;;;26.23;45.60;101649.72;5074280;28;20385;-60
2021/06/12 04:21:48;;;;;;;3.08;2.08;;;;;;;26.23;45.52;101649.72;5056675;28;20020;-60
2021/06/12 04:24:14;;;;;;;3.35;2.00;;;;;;;26.22;45.83;101646.09;5074455;28;20193;-60
2021/06/12 04:26:39;;;;;;;3.08;2.25;;;;;;;26.18;45.70;101649.50;5074679;28;20521;-60
2021/06/12 04:29:05;;;;;;;2.80;2.20;;;;;;;26.19;45.44;101653.91;5074070;28;20493;-60
2021/06/12 04:31:30;;;;;;;3.25;2.05;;;;;;;26.18;45.93;101658.59;5056167;28;20378;-60
2021/06/12 04:33:55;;;;;;;2.00;1.67;;;;;;;26.19;45.47;101660.25;5056373;28;20055;-59
2021/06/12 04:36:21;;;;;;;2.97;1.60;;;;;;;26.22;45.70;101659.84;5073942;28;20028;-59
2021/06/12 04:38:46;;;;;;;4.25;2.63;;;;;;;26.28;44.95;101658.16;5073930;28;20056;-60
2021/06/12 04:41:11;;;;;;;5.90;1.70;;;;;;;26.30;45.62;101654.13;5074632;28;20024;-60
2021/06/12 04:43:37;;;;;;;4.47;1.73;;;;;;;26.29;45.78;101648.88;5074344;28;20032;-61
2021/06/12 04:46:02;;;;;;;3.95;2.30;;;;;;;26.28;45.45;101652.66;5074792;28;20024;-59
2021/06/12 04:48:28;;;;;;;2.50;1.80;;;;;;;26.32;45.42;101659.44;5074043;28;20103;-60
2021/06/12 04:50:53;;;;;;;2.88;2.00;;;;;;;26.36;45.30;101650.53;5073741;28;20025;-60
2021/06/12 04:53:18;;;;;;;3.08;2.05;;;;;;;26.41;45.45;101652.69;5073565;28;20560;-59
2021/06/12 04:55:44;;;;;;;2.83;2.17;;;;;;;26.44;45.28;101655.81;5055171;28;20107;-60
2021/06/12 04:58:10;;;;;;;3.80;1.60;;;;;;;26.44;45.26;101660.47;5056279;28;20040;-59
2021/06/12 05:00:36;;;;;;;5.35;2.03;;;;;;;26.42;45.34;101657.09;5074354;28;20373;-60
2021/06/12 05:03:02;;;;;;;3.40;1.90;;;;;;;26.40;45.78;101653.72;5073845;28;20020;-60
2021/06/12 05:05:28;;;;;;;3.95;1.55;;;;;;;26.35;45.89;101648.03;5072743;28;20461;-61
2021/06/12 05:07:53;;;;;;;2.50;1.90;;;;;;;26.29;45.75;101654.34;5074052;28;20050;-60
2021/06/12 05:10:18;;;;;;;2.55;1.60;;;;;;;26.32;45.55;101653.94;5073771;28;20449;-59
2021/06/12 05:12:44;;;;;;;4.35;2.35;;;;;;;26.35;45.35;101659.00;5073622;28;20035;-59
2021/06/12 05:15:10;;;;;;;2.28;1.77;;;;;;;26.32;45.54;101635.56;5073716;28;20060;-59
2021/06/12 05:17:36;;;;;;;3.33;1.90;;;;;;;26.38;45.61;101648.41;5072152;28;20036;-60
2021/06/12 05:20:04;;;;;;;3.25;1.85;;;;;;;26.43;45.67;101650.53;5073892;28;20025;-60
2021/06/12 05:22:29;;;;;;;3.10;1.98;;;;;;;26.46;45.51;101658.38;5074140;28;20373;-60
2021/06/12 05:24:56;;;;;;;4.18;1.90;;;;;;;26.52;45.58;101665.78;5055420;28;20016;-60
2021/06/12 05:27:22;;;;;;;2.05;1.73;;;;;;;26.58;45.64;101659.38;5056049;28;20109;-60
2021/06/12 05:29:48;;;;;;;2.08;1.65;;;;;;;26.63;45.33;101674.19;5073270;28;20067;-60
2021/06/12 05:32:13;;;;;;;2.60;1.60;;;;;;;26.69;45.11;101677.97;5073244;28;20040;-60
2021/06/12 05:34:39;;;;;;;4.78;2.15;;;;;;;26.72;45.32;101677.56;5073750;28;20435;-60
2021/06/12 05:37:05;;;;;;;5.47;1.92;;;;;;;26.79;45.11;101677.59;5072218;28;20039;-60
2021/06/12 05:39:30;;;;;;;3.55;1.98;;;;;;;26.84;45.05;101670.38;5073162;28;20082;-60
2021/06/12 05:41:56;;;;;;;6.75;2.67;;;;;;;26.87;44.80;101669.94;5073418;28;20037;-60
2021/06/12 05:44:21;;;;;;;4.13;2.22;;;;;;;26.94;44.72;101668.00;5056133;28;20101;-60
2021/06/12 05:46:49;;;;;;;5.20;3.10;;;;;;;26.99;44.97;101668.25;5073423;28;20107;-60
2021/06/12 05:49:15;;;;;;;6.45;2.88;;;;;;;27.11;44.62;101677.47;5055686;28;20074;-59
2021/06/12 05:51:40;;;;;;;5.90;2.85;;;;;;;27.22;44.19;101677.88;5055522;28;20025;-59
2021/06/12 05:54:05;;;;;;;3.67;2.55;;;;;;;27.40;44.73;101686.25;5072876;28;20124;-60
2021/06/12 05:56:31;;;;;;;4.47;2.60;;;;;;;27.57;43.63;101681.97;5073281;28;20028;-60
2021/06/12 05:58:56;;;;;;;7.50;3.45;;;;;;;27.61;43.78;101689.56;5073008;28;20081;-59
2021/06/12 06:01:21;;;;;;;5.30;3.17;;;;;;;27.65;44.38;101695.50;5072997;28;20161;-60
2021/06/12 06:03:48;;;;;;;5.63;3.45;;;;;;;27.72;43.59;101696.31;5073166;28;20465;-60
2021/06/12 06:06:14;;;;;;;8.00;3.65;;;;;;;27.76;44.59;101697.53;5073232;28;20021;-61
2021/06/12 06:08:39;;;;;;;7.57;4.15;;;;;;;27.93;44.06;101708.88;5075764;28;20100;-60
2021/06/12 06:11:05;;;;;;;7.72;3.85;;;;;;;28.01;44.02;101709.47;5076699;28;20052;-60
2021/06/12 06:13:41;;;;;;;6.55;3.63;;;;;;;28.09;44.25;101713.88;5076662;28;20029;-60
2021/06/12 06:16:06;;;;;;;7.75;3.75;;;;;;;28.09;44.24;101719.41;5076783;28;20028;-60
2021/06/12 06:18:32;;;;;;;6.45;3.50;;;;;;;28.14;44.16;101716.84;5076506;28;20035;-60
2021/06/12 06:20:58;;;;;;;7.28;3.80;;;;;;;28.29;42.72;101711.81;5058875;28;20064;-61
2021/06/12 06:23:23;;;;;;;8.82;4.28;;;;;;;28.49;43.48;101719.94;5076441;28;20028;-59
2021/06/12 06:25:48;;;;;;;9.77;4.43;;;;;;;28.71;42.49;101712.97;5076692;28;20041;-60
2021/06/12 06:28:14;;;;;;;6.28;4.10;;;;;;;28.86;43.15;101711.56;5076636;28;20032;-56
2021/06/12 06:30:39;;;;;;;6.38;3.53;;;;;;;28.83;43.03;101719.44;5072244;28;20025;-56
2021/06/12 06:33:05;;;;;;;6.93;3.63;;;;;;;28.70;43.54;101719.59;5056367;28;20469;-56
2021/06/12 06:35:30;;;;;;;5.63;4.10;;;;;;;28.54;43.14;101734.75;5038553;28;20040;-55
2021/06/12 06:37:55;;;;;;;5.45;4.13;;;;;;;28.40;43.69;101733.16;5056517;28;20461;-56
2021/06/12 06:40:21;;;;;;;8.88;4.95;;;;;;;28.28;42.89;101743.25;5056578;28;20075;-56
2021/06/12 06:42:46;;;;;;;7.03;4.63;;;;;;;28.16;43.69;101748.63;5056587;28;20029;-56
2021/06/12 06:45:15;;;;;;;12.10;5.10;;;;;;;27.99;43.69;101749.31;5056524;28;20098;-56
2021/06/12 06:47:40;;;;;;;8.38;4.40;;;;;;;27.82;43.94;101751.75;5056292;28;20037;-55
2021/06/12 06:50:07;;;;;;;9.38;4.82;;;;;;;27.63;43.36;101736.19;5056464;28;20500;-55
2021/06/12 06:52:33;;;;;;;7.78;5.43;;;;;;;27.67;43.58;101751.19;5054701;28;20029;-56
2021/06/12 06:54:58;;;;;;;9.23;5.28;;;;;;;27.62;43.83;101762.00;5056322;28;20048;-56
2021/06/12 06:57:23;;;;;;;8.07;5.32;;;;;;;27.60;43.88;101750.38;5056358;28;20021;-55
2021/06/12 06:59:49;;;;;;;8.30;5.78;;;;;;;27.59;43.88;101759.69;5056219;28;20078;-55
2021/06/12 07:02:14;;;;;;;16.10;6.38;;;;;;;27.57;43.84;101754.41;5038727;28;20520;-55
2021/06/12 07:04:40;;;;;;;8.55;5.93;;;;;;;27.55;44.03;101763.97;5056051;28;20406;-56
2021/06/12 07:07:06;;;;;;;7.18;5.50;;;;;;;27.57;43.05;101759.06;5056154;28;20036;-56
2021/06/12 07:09:32;;;;;;;10.10;6.00;;;;;;;27.63;43.32;101758.19;5054932;28;20029;-57
2021/06/12 07:11:59;;;;;;;10.20;6.10;;;;;;;27.72;43.26;101767.91;5038507;28;20044;-55
2021/06/12 07:14:26;;;;;;;13.32;6.75;;;;;;;27.65;43.38;101769.84;5037928;28;20115;-56
2021/06/12 07:16:51;;;;;;;9.88;6.82;;;;;;;27.58;43.45;101778.13;5055733;28;20021;-55
2021/06/12 07:19:17;;;;;;;11.20;7.15;;;;;;;27.55;43.84;101778.56;5054894;28;20078;-56
2021/06/12 07:21:42;;;;;;;12.82;7.30;;;;;;;27.46;43.18;101765.25;5055707;28;20031;-55
2021/06/12 07:24:07;;;;;;;12.50;7.65;;;;;;;27.35;43.85;101760.41;5055368;28;20100;-57
2021/06/12 07:26:33;;;;;;;11.70;6.43;;;;;;;27.33;44.04;101757.03;5055715;28;20385;-56
2021/06/12 07:28:58;;;;;;;8.95;6.57;;;;;;;27.32;43.96;101761.66;5055636;28;20025;-56
2021/06/12 07:31:24;;;;;;;12.40;7.28;;;;;;;27.30;43.35;101763.81;5037533;28;20120;-55
2021/06/12 07:33:49;;;;;;;15.20;7.65;;;;;;;27.28;43.41;101765.91;5055286;28;20170;-56
2021/06/12 07:36:14;;;;;;;15.88;7.63;;;;;;;27.24;43.15;101763.81;5055589;28;20041;-56
2021/06/12 07:38:40;;;;;;;12.60;7.75;;;;;;;27.22;43.44;101765.94;5055611;28;20495;-56
2021/06/12 07:41:05;;;;;;;12.32;7.75;;;;;;;27.18;44.06;101777.38;5055536;28;20413;-55
2021/06/12 07:43:30;;;;;;;18.00;8.98;;;;;;;27.13;43.52;101788.19;5055345;28;20029;-56
2021/06/12 07:45:56;;;;;;;14.35;9.00;;;;;;;27.06;44.25;101784.59;5055448;28;20079;-56
2021/06/12 07:48:21;;;;;;;15.25;9.23;;;;;;;27.01;44.31;101780.78;5053995;28;20075;-55
2021/06/12 07:50:47;;;;;;;16.33;8.63;;;;;;;26.94;44.12;101786.28;5055401;28;20087;-56
2021/06/12 07:53:12;;;;;;;19.23;9.88;;;;;;;26.91;44.39;101791.38;5052758;28;20056;-55
2021/06/12 07:55:38;;;;;;;21.48;9.57;;;;;;;26.86;44.39;101791.16;5055179;28;20518;-56
2021/06/12 07:58:03;;;;;;;16.23;9.75;;;;;;;26.82;43.96;101785.25;5054838;28;20069;-56
2021/06/12 08:00:29;;;;;;;18.17;11.10;;;;;;;26.78;44.25;101786.72;5055125;28;20484;-55
2021/06/12 08:02:54;;;;;;;15.95;9.23;;;;;;;26.78;44.06;101786.72;5054800;28;20032;-56
2021/06/12 08:05:20;;;;;;;21.42;10.10;;;;;;;26.76;44.38;101787.97;5036931;28;20025;-56
2021/06/12 08:07:45;;;;;;;19.05;10.45;;;;;;;26.71;44.45;101785.00;5020304;28;20512;-56
2021/06/12 08:10:11;;;;;;;22.00;10.40;;;;;;;26.74;44.35;101785.44;5054703;28;20053;-56
2021/06/12 08:12:36;;;;;;;16.52;9.18;;;;;;;26.75;44.21;101792.63;5055167;28;20400;-56
2021/06/12 08:15:04;;;;;;;18.08;11.30;;;;;;;26.75;44.11;101784.38;5053314;28;20492;-55
2021/06/12 08:17:30;;;;;;;21.70;9.95;;;;;;;26.72;44.34;101793.03;5054766;28;20539;-56
2021/06/12 08:19:55;;;;;;;19.05;9.82;;;;;;;26.79;44.00;101791.19;5055032;28;20057;-57
2021/06/12 08:22:21;;;;;;;18.65;10.48;;;;;;;26.85;44.14;101776.59;5054691;28;20028;-60
2021/06/12 08:24:46;;;;;;;17.95;9.55;;;;;;;26.95;43.90;101787.97;5054930;28;20055;-60
2021/06/12 08:27:11;;;;;;;18.00;9.70;;;;;;;27.04;44.23;101785.88;5054615;28;20032;-59
2021/06/12 08:29:37;;;;;;;21.17;9.98;;;;;;;27.18;43.71;101787.53;5036091;28;20049;-60
2021/06/12 08:32:04;;;;;;;18.80;9.30;;;;;;;27.29;43.74;101788.78;5053951;28;20040;-60
2021/06/12 08:34:29;;;;;;;21.13;9.10;;;;;;;27.33;43.86;101787.28;5054014;28;20029;-60
2021/06/12 08:36:55;;;;;;;15.55;9.10;;;;;;;27.37;44.09;101785.78;5054438;28;20070;-60
2021/06/12 08:39:20;;;;;;;21.27;9.88;;;;;;;27.39;44.40;101790.00;5054429;28;20104;-60
2021/06/12 08:41:45;;;;;;;15.25;9.05;;;;;;;27.40;43.49;101799.97;5054294;28;20036;-59
2021/06/12 08:44:12;;;;;;;18.13;9.90;;;;;;;27.42;44.22;101788.75;5054251;28;20060;-59
2021/06/12 08:46:39;;;;;;;17.83;10.20;;;;;;;27.45;43.83;101786.44;5054135;28;20049;-59
2021/06/12 08:49:05;;;;;;;16.25;9.18;;;;;;;27.46;43.83;101792.78;5036207;28;20036;-60
2021/06/12 08:51:30;;;;;;;18.00;9.90;;;;;;;27.46;43.84;101796.38;5054463;28;20489;-60
2021/06/12 08:53:56;;;;;;;20.80;9.00;;;;;;;27.52;43.99;101801.03;5053568;28;20136;-60
2021/06/12 08:56:21;;;;;;;18.50;9.70;;;;;;;27.62;44.24;101786.78;5054096;28;20037;-60
2021/06/12 08:58:47;;;;;;;14.63;8.48;;;;;;;27.75;43.30;101795.00;5054032;28;20040;-59
2021/06/12 09:01:12;;;;;;;20.95;8.07;;;;;;;27.90;43.12;101792.81;5054531;28;20052;-60
2021/06/12 09:03:42;;;;;;;17.80;8.65;;;;;;;28.13;43.50;101793.16;5053933;28;20060;-60
2021/06/12 09:06:08;;;;;;;16.17;8.30;;;;;;;28.28;43.30;101796.44;5035819;28;20042;-59
2021/06/12 09:08:37;;;;;;;23.90;8.50;;;;;;;28.41;43.15;101792.75;5053865;28;20033;-60
2021/06/12 09:11:11;;;;;;;14.75;8.23;;;;;;;28.80;42.38;101788.88;5035708;28;20035;-60
2021/06/12 09:14:03;;;;;;;16.15;8.45;;;;;;;29.37;42.30;101791.28;5053779;28;20025;-61
2021/06/12 09:16:38;;;;;;;16.48;9.27;;;;;;;29.42;42.14;101796.97;5050074;28;20060;-60
2021/06/12 09:19:09;;;;;;;18.50;8.35;;;;;;;29.57;41.64;101792.97;5053555;28;20025;-60
2021/06/12 09:21:37;;;;;;;15.35;7.90;;;;;;;29.53;41.39;101797.28;5053520;28;20486;-60
2021/06/12 09:24:06;;;;;;;14.57;8.23;;;;;;;29.46;41.84;101808.38;5053735;28;20033;-60
2021/06/12 09:26:49;;;;;;;15.38;7.68;;;;;;;29.33;42.56;101809.38;5053689;28;20025;-60
2021/06/12 09:29:18;;;;;;;11.50;6.85;;;;;;;29.22;42.17;101807.38;5053944;28;20035;-60
2021/06/12 09:31:52;;;;;;;12.50;7.78;;;;;;;29.20;42.71;101815.00;5052545;28;20372;-60
2021/06/12 09:34:20;;;;;;;15.00;7.25;;;;;;;29.16;41.74;101816.53;5053577;28;20496;-61
2021/06/12 09:36:46;;;;;;;11.90;6.93;;;;;;;29.14;42.40;101820.59;5053311;28;20033;-61
2021/06/12 09:39:13;;;;;;;14.30;7.88;;;;;;;29.07;41.81;101823.41;5053568;28;20041;-60
2021/06/12 09:41:41;;;;;;;12.40;6.82;;;;;;;28.99;42.92;101820.09;5055097;28;20025;-60
2021/06/12 09:44:06;;;;;;;13.60;7.30;;;;;;;28.95;41.74;101825.22;5056153;28;20028;-60
2021/06/12 09:46:33;;;;;;;15.02;7.20;;;;;;;28.95;42.88;101824.41;5056495;28;20037;-60
2021/06/12 09:48:59;;;;;;;11.40;6.30;;;;;;;29.01;42.87;101824.31;5057642;28;20054;-60
2021/06/12 09:51:24;;;;;;;13.48;7.20;;;;;;;29.03;42.63;101824.09;5039438;28;20073;-60
2021/06/12 09:53:52;;;;;;;12.15;6.88;;;;;;;28.96;42.16;101818.63;5057057;28;20131;-60
2021/06/12 09:56:19;;;;;;;12.48;6.95;;;;;;;28.84;42.33;101823.19;5040376;28;20033;-60
2021/06/12 09:58:44;;;;;;;12.02;6.90;;;;;;;28.76;42.49;101827.09;5057743;28;20032;-60
2021/06/12 10:01:11;;;;;;;13.43;7.68;;;;;;;28.70;42.76;101838.19;5055967;28;20025;-60
2021/06/12 10:03:37;;;;;;;18.98;7.93;;;;;;;28.72;42.95;101842.41;5057378;28;20523;-61
2021/06/12 10:06:10;;;;;;;12.52;7.20;;;;;;;28.75;42.04;101839.22;5039144;28;20029;-60
2021/06/12 10:08:35;;;;;;;12.35;7.55;;;;;;;28.90;42.71;101844.38;5056995;28;20204;-60
2021/06/12 10:11:01;;;;;;;12.05;7.75;;;;;;;29.14;41.60;101842.69;5055769;28;20472;-60
2021/06/12 10:13:27;;;;;;;13.73;8.73;;;;;;;29.28;41.23;101842.38;5039061;28;20029;-60
2021/06/12 10:15:54;;;;;;;13.73;8.05;;;;;;;29.42;41.04;101827.34;5057149;28;20094;-60
2021/06/12 10:18:21;;;;;;;12.65;8.18;;;;;;;29.59;41.30;101838.63;5057379;28;20082;-59
2021/06/12 10:20:46;;;;;;;13.60;8.15;;;;;;;29.83;40.92;101834.97;5055874;28;20471;-60
2021/06/12 10:23:12;;;;;;;12.80;8.70;;;;;;;29.92;40.79;101832.75;5056684;28;20044;-60
2021/06/12 10:25:37;;;;;;;14.85;8.75;;;;;;;30.12;40.65;101838.84;5056628;28;20047;-59
2021/06/12 10:28:03;;;;;;;17.33;9.25;;;;;;;30.51;40.29;101832.75;5056868;28;20029;-61
2021/06/12 10:30:29;;;;;;;17.20;9.32;;;;;;;30.83;39.74;101824.16;5055615;28;20025;-60
2021/06/12 10:32:55;;;;;;;14.82;9.18;;;;;;;31.19;39.14;101829.50;5055303;28;20028;-60
2021/06/12 10:35:26;;;;;;;14.85;9.55;;;;;;;31.30;39.71;101839.75;5056339;28;20025;-60
2021/06/12 10:38:09;;;;;;;12.57;8.85;;;;;;;31.23;39.36;101841.81;5056819;28;20030;-60
2021/06/12 10:40:41;;;;;;;16.40;8.95;;;;;;;31.10;39.82;101848.41;5039663;28;20039;-60
2021/06/12 10:43:19;;;;;;;14.95;8.85;;;;;;;30.86;39.78;101840.28;5056125;28;20020;-60
2021/06/12 10:45:48;;;;;;;17.98;10.02;;;;;;;30.69;39.87;101844.81;5056410;28;20032;-60
2021/06/12 10:48:41;;;;;;;14.63;8.25;;;;;;;30.72;39.47;101841.59;5056286;28;20108;-55
2021/06/12 10:51:12;;;;;;;12.25;8.10;;;;;;;30.82;39.61;101855.72;5055929;28;20086;-55
2021/06/12 10:53:38;;;;;;;12.30;8.88;;;;;;;30.93;39.86;101841.06;5033818;28;20121;-55
2021/06/12 10:56:33;;;;;;;13.18;8.40;;;;;;;31.73;38.14;101841.28;5036739;28;20083;-55
2021/06/12 10:58:59;;;;;;;13.23;8.80;;;;;;;32.05;38.16;101845.34;5036319;28;20439;-55
2021/06/12 11:01:24;;;;;;;13.63;8.13;;;;;;;31.86;38.68;101841.00;5036573;28;20056;-56
2021/06/12 11:04:03;;;;;;;15.18;8.32;;;;;;;31.70;38.55;101850.94;5036270;28;20026;-55
2021/06/12 11:09:13;;;;;;;11.65;8.02;;;;;;;31.77;38.02;101836.97;5034929;28;20392;-56
2021/06/12 11:11:45;;;;;;;11.80;7.20;;;;;;;32.06;38.26;101830.38;5036166;28;20029;-56
2021/06/12 11:14:19;;;;;;;13.95;8.43;;;;;;;32.16;37.39;101831.41;5035760;28;20109;-56
2021/06/12 11:19:40;;;;;;;14.95;9.10;;;;;;;32.74;36.74;101825.59;5035589;28;20038;-56
2021/06/12 11:22:41;;;;;;;11.27;7.95;;;;;;;33.42;35.79;101816.97;5035975;28;20033;-56
2021/06/12 11:25:09;;;;;;;14.70;8.10;;;;;;;33.51;36.51;101817.34;4955587;29;20421;-56
2021/06/12 11:27:34;;;;;;;13.20;8.10;;;;;;;33.30;36.45;101809.84;4963367;28;20048;-56